Time;durP1;ratioP1;P1;durP2;ratioP2;P2;SDS_P1;SDS_P2;PMS_P1;PMS_P2;Temp;Humidity;BMP_temperature;BMP_pressure;BME280_temperature;BME280_humidity;BME280_pressure;Samples;Min_cycle;Max_cycle;Signal;HPM_P1;HPM_P2
2021/11/17 02:27:25;;;;;;;16.30;15.10;;;7.80;99.90;;;;;;5072920;28;20800;-71
2021/11/17 02:30:06;;;;;;;17.00;15.80;;;7.70;99.90;;;;;;5072594;28;20446;-73
2021/11/17 02:32:46;;;;;;;17.43;16.20;;;7.80;99.90;;;;;;5072950;28;20503;-73
2021/11/17 02:35:36;;;;;;;17.00;15.80;;;7.90;99.90;;;;;;5072751;28;20438;-74
2021/11/17 02:38:21;;;;;;;17.23;16.13;;;7.90;99.90;;;;;;5072733;28;20463;-73
2021/11/17 02:41:12;;;;;;;16.70;15.70;;;7.80;99.90;;;;;;5072581;28;20988;-73
2021/11/17 02:43:58;;;;;;;16.60;15.60;;;7.80;99.90;;;;;;5069900;28;20463;-73
2021/11/17 02:46:41;;;;;;;15.67;14.70;;;7.70;99.90;;;;;;5076769;28;20438;-73
2021/11/17 02:49:27;;;;;;;16.10;15.10;;;7.70;99.90;;;;;;5073180;28;20446;-74
2021/11/17 02:52:15;;;;;;;16.23;15.33;;;7.70;99.90;;;;;;5072399;28;20453;-74
2021/11/17 02:54:58;;;;;;;16.07;15.07;;;7.70;99.90;;;;;;5073043;28;20431;-73
2021/11/17 02:57:41;;;;;;;17.20;16.10;;;7.80;99.90;;;;;;5072614;28;20454;-73
2021/11/17 03:00:53;;;;;;;17.83;16.43;;;7.80;99.90;;;;;;5072517;28;20447;-73
2021/11/17 03:03:44;;;;;;;17.47;15.97;;;7.90;99.90;;;;;;5061200;28;20798;-73
2021/11/17 03:06:28;;;;;;;17.13;16.13;;;8.00;99.90;;;;;;5072490;28;20490;-73
2021/11/17 03:09:21;;;;;;;16.60;15.50;;;8.00;99.90;;;;;;5072512;28;20459;-73
2021/11/17 03:12:03;;;;;;;17.23;16.10;;;8.10;99.90;;;;;;5072131;28;20451;-73
2021/11/17 03:14:46;;;;;;;16.97;15.87;;;8.10;99.90;;;;;;5072363;28;20450;-73
2021/11/17 03:17:46;;;;;;;16.00;14.97;;;8.20;99.90;;;;;;5072408;28;20447;-73
2021/11/17 03:20:30;;;;;;;17.13;16.03;;;8.10;99.90;;;;;;5072201;28;20454;-73
2021/11/17 03:23:09;;;;;;;17.87;16.67;;;8.10;99.90;;;;;;5072352;28;20457;-73
2021/11/17 03:25:49;;;;;;;18.00;16.90;;;8.00;99.90;;;;;;5071959;28;20483;-72
2021/11/17 03:28:33;;;;;;;16.93;15.93;;;8.00;99.90;;;;;;5071992;28;20447;-72
2021/11/17 03:31:21;;;;;;;17.30;16.10;;;7.90;99.90;;;;;;5071730;28;20474;-73
2021/11/17 03:34:11;;;;;;;17.07;16.07;;;7.80;99.90;;;;;;5071998;28;20817;-72
2021/11/17 03:37:02;;;;;;;17.67;16.57;;;7.80;99.90;;;;;;5070960;28;20447;-72
2021/11/17 03:39:51;;;;;;;18.17;16.87;;;7.80;99.90;;;;;;5071713;28;20487;-72
2021/11/17 03:42:44;;;;;;;18.30;17.10;;;7.70;99.90;;;;;;5071655;28;20447;-72
2021/11/17 03:45:46;;;;;;;18.43;17.10;;;7.80;99.90;;;;;;5072269;28;20545;-72
2021/11/17 03:48:29;;;;;;;19.67;18.37;;;7.80;99.90;;;;;;5071398;28;20447;-73
2021/11/17 03:51:17;;;;;;;20.07;18.47;;;7.70;99.90;;;;;;5071450;28;20446;-72
2021/11/17 03:54:08;;;;;;;18.57;17.47;;;7.60;99.90;;;;;;5071658;28;20471;-74
2021/11/17 03:56:50;;;;;;;18.03;17.00;;;7.60;99.90;;;;;;5071479;28;20450;-74
2021/11/17 03:59:31;;;;;;;18.87;17.67;;;7.60;99.90;;;;;;5071436;28;20848;-75
2021/11/17 04:02:11;;;;;;;19.83;18.40;;;7.50;99.90;;;;;;5071341;28;20849;-73
2021/11/17 04:04:55;;;;;;;19.67;18.23;;;7.60;99.90;;;;;;5071133;28;20850;-75
2021/11/17 04:07:50;;;;;;;18.90;17.50;;;7.60;99.90;;;;;;5071323;28;20478;-74
2021/11/17 04:10:54;;;;;;;18.60;17.40;;;7.60;99.90;;;;;;5071264;28;20451;-73
2021/11/17 04:13:31;;;;;;;19.40;17.87;;;7.50;99.90;;;;;;5009031;28;20450;-73
2021/11/17 04:16:11;;;;;;;19.27;17.90;;;7.50;99.90;;;;;;5060812;28;20470;-74
2021/11/17 04:18:49;;;;;;;19.27;17.97;;;7.60;99.90;;;;;;5071079;28;20447;-73
2021/11/17 04:21:31;;;;;;;19.77;18.43;;;7.60;99.90;;;;;;5071136;28;20451;-74
2021/11/17 04:24:26;;;;;;;19.67;18.30;;;7.70;99.90;;;;;;5070960;28;20470;-74
2021/11/17 04:27:12;;;;;;;19.80;18.40;;;7.60;99.90;;;;;;5070553;28;20969;-73
2021/11/17 04:29:54;;;;;;;19.00;17.90;;;7.60;99.90;;;;;;5071005;28;20822;-74
2021/11/17 04:32:40;;;;;;;18.83;17.63;;;7.70;99.90;;;;;;5070958;28;20454;-73
2021/11/17 04:35:55;;;;;;;18.90;17.20;;;7.70;99.90;;;;;;5070787;28;20820;-72
2021/11/17 04:38:53;;;;;;;20.57;19.10;;;7.70;99.90;;;;;;5070672;28;20447;-73
2021/11/17 04:41:43;;;;;;;20.00;18.60;;;7.70;99.90;;;;;;5068169;28;20458;-73
2021/11/17 04:44:21;;;;;;;18.70;17.50;;;7.70;99.90;;;;;;5070686;28;20446;-74
2021/11/17 04:47:02;;;;;;;18.97;17.87;;;7.60;99.90;;;;;;5070499;28;20944;-74
2021/11/17 04:49:42;;;;;;;19.63;18.43;;;7.60;99.90;;;;;;5070613;28;20450;-73
2021/11/17 04:52:31;;;;;;;19.13;17.70;;;7.70;99.90;;;;;;5070385;28;20470;-73
2021/11/17 04:55:17;;;;;;;19.20;18.00;;;7.70;99.90;;;;;;5070771;28;20446;-73
2021/11/17 04:57:57;;;;;;;19.30;18.20;;;7.70;99.90;;;;;;5070344;28;20443;-72
2021/11/17 05:00:52;;;;;;;19.87;18.67;;;7.70;99.90;;;;;;5070550;28;20880;-72
2021/11/17 05:03:34;;;;;;;19.77;18.37;;;7.70;99.90;;;;;;5070670;28;20461;-72
2021/11/17 05:06:13;;;;;;;18.70;17.50;;;7.80;99.90;;;;;;5070107;28;20849;-73
2021/11/17 05:08:48;;;;;;;19.10;18.00;;;7.80;99.90;;;;;;5070507;28;20497;-73
2021/11/17 05:11:29;;;;;;;19.10;17.90;;;7.80;99.90;;;;;;5070399;28;20446;-73
2021/11/17 05:14:03;;;;;;;20.10;18.77;;;7.70;99.90;;;;;;5070428;28;20466;-73
2021/11/17 05:16:42;;;;;;;21.37;19.87;;;7.80;99.90;;;;;;5070529;28;20444;-74
2021/11/17 05:19:16;;;;;;;20.13;18.73;;;7.80;99.90;;;;;;5070513;28;20913;-73
2021/11/17 05:21:55;;;;;;;19.67;18.30;;;7.80;99.90;;;;;;5070259;28;20446;-73
2021/11/17 05:24:38;;;;;;;18.60;17.30;;;7.90;99.90;;;;;;5070496;28;20455;-73
2021/11/17 05:27:33;;;;;;;20.40;19.10;;;7.80;99.90;;;;;;5070126;28;20450;-71
2021/11/17 05:30:15;;;;;;;19.90;18.70;;;7.80;99.90;;;;;;5070054;28;21148;-72
2021/11/17 05:32:54;;;;;;;19.70;18.30;;;7.80;99.90;;;;;;5070206;28;20575;-73
2021/11/17 05:35:34;;;;;;;20.37;19.00;;;7.70;99.90;;;;;;5070176;28;20447;-72
2021/11/17 05:38:12;;;;;;;20.57;18.97;;;7.60;99.90;;;;;;5070183;28;20458;-72
2021/11/17 05:40:51;;;;;;;20.43;19.03;;;7.50;99.90;;;;;;5068961;28;20458;-72
2021/11/17 05:43:31;;;;;;;20.10;18.80;;;7.60;99.90;;;;;;5060036;28;20808;-73
2021/11/17 05:46:10;;;;;;;21.43;19.90;;;7.60;99.90;;;;;;5060052;28;20481;-72
2021/11/17 05:48:47;;;;;;;23.27;21.57;;;7.60;99.90;;;;;;5059895;28;20450;-73
2021/11/17 05:51:34;;;;;;;23.83;22.20;;;7.60;99.90;;;;;;5060111;28;20446;-73
2021/11/17 05:54:17;;;;;;;24.10;22.40;;;7.60;99.90;;;;;;5058213;28;20450;-73
2021/11/17 05:56:57;;;;;;;24.90;23.10;;;7.50;99.90;;;;;;5058670;28;21068;-73
2021/11/17 05:59:49;;;;;;;24.83;23.20;;;7.50;99.90;;;;;;5058696;28;20432;-72
2021/11/17 06:02:29;;;;;;;25.30;23.70;;;7.50;99.90;;;;;;5063578;28;20801;-71
2021/11/17 06:04:56;;;;;;;28.23;26.37;;;7.40;99.90;;;;;;5063264;28;20449;-71
2021/11/17 06:07:22;;;;;;;28.93;27.13;;;7.30;99.90;;;;;;5061575;28;20444;-71
2021/11/17 06:09:49;;;;;;;28.87;26.90;;;7.20;99.90;;;;;;5062076;28;20453;-72
2021/11/17 06:12:19;;;;;;;28.40;26.67;;;7.30;99.90;;;;;;5063384;28;20937;-72
2021/11/17 06:14:48;;;;;;;29.67;28.07;;;7.20;99.90;;;;;;5071596;28;20450;-72
2021/11/17 06:17:18;;;;;;;30.67;28.67;;;7.30;99.90;;;;;;5073719;28;20459;-72
2021/11/17 06:19:48;;;;;;;29.73;27.93;;;7.30;99.90;;;;;;5073444;28;20454;-72
2021/11/17 06:22:18;;;;;;;29.37;27.40;;;7.30;99.90;;;;;;5073494;28;20451;-72
2021/11/17 06:24:46;;;;;;;28.80;27.10;;;7.20;99.90;;;;;;5073729;28;20455;-73
2021/11/17 06:27:16;;;;;;;30.20;28.27;;;7.30;99.90;;;;;;5073496;28;20480;-72
2021/11/17 06:29:48;;;;;;;28.90;27.03;;;7.20;99.90;;;;;;5073161;28;20451;-73
2021/11/17 06:32:16;;;;;;;28.33;26.57;;;7.20;99.90;;;;;;5073184;28;20470;-72
2021/11/17 06:34:44;;;;;;;28.50;26.60;;;7.20;99.90;;;;;;5073164;28;20961;-72
2021/11/17 06:37:13;;;;;;;31.40;29.20;;;7.20;99.90;;;;;;5073028;28;20443;-73
2021/11/17 06:39:42;;;;;;;31.47;29.03;;;7.30;99.90;;;;;;5073021;28;20447;-72
2021/11/17 06:42:11;;;;;;;30.57;28.60;;;7.40;99.90;;;;;;5072945;28;20458;-72
2021/11/17 06:44:38;;;;;;;31.40;29.40;;;7.40;99.90;;;;;;5072898;28;20451;-71
2021/11/17 06:47:07;;;;;;;31.17;28.97;;;7.30;99.90;;;;;;5072878;28;20514;-72
2021/11/17 06:49:34;;;;;;;31.63;29.43;;;7.20;99.90;;;;;;5072794;28;20446;-73
2021/11/17 06:52:01;;;;;;;31.07;28.87;;;7.10;99.90;;;;;;5072916;28;20487;-73
2021/11/17 06:54:28;;;;;;;30.57;28.67;;;7.20;99.90;;;;;;5072844;28;20477;-72
2021/11/17 06:56:54;;;;;;;30.83;28.73;;;7.10;99.90;;;;;;5072692;28;20454;-73
2021/11/17 06:59:21;;;;;;;30.50;28.40;;;7.20;99.90;;;;;;5072797;28;20445;-73
2021/11/17 07:01:48;;;;;;;32.13;30.00;;;7.20;99.90;;;;;;5072527;28;20447;-72
2021/11/17 07:04:16;;;;;;;30.20;28.30;;;7.30;99.90;;;;;;5072730;28;20463;-73
2021/11/17 07:06:43;;;;;;;30.43;28.43;;;7.30;99.90;;;;;;5072640;28;20482;-73
2021/11/17 07:09:10;;;;;;;29.70;27.70;;;7.40;99.90;;;;;;5072663;28;20469;-73
2021/11/17 07:11:39;;;;;;;31.30;29.30;;;7.40;99.90;;;;;;5072438;28;20458;-73
2021/11/17 07:14:06;;;;;;;31.93;29.63;;;7.50;99.90;;;;;;5072434;28;20451;-73
2021/11/17 07:16:34;;;;;;;29.77;27.97;;;7.40;99.90;;;;;;5072113;28;20972;-73
2021/11/17 07:19:00;;;;;;;28.83;27.13;;;7.30;99.90;;;;;;5072489;28;20465;-74
2021/11/17 07:21:29;;;;;;;30.40;28.50;;;7.40;99.90;;;;;;5072203;28;20463;-72
2021/11/17 07:23:57;;;;;;;28.73;26.83;;;7.40;99.90;;;;;;5072245;28;21230;-73
2021/11/17 07:26:23;;;;;;;29.23;27.33;;;7.40;99.90;;;;;;5071815;28;20482;-73
2021/11/17 07:28:50;;;;;;;27.27;25.60;;;7.40;99.90;;;;;;5072327;28;20446;-73
2021/11/17 07:31:17;;;;;;;27.77;26.00;;;7.40;99.90;;;;;;5071632;28;20473;-73
2021/11/17 07:33:43;;;;;;;28.40;26.40;;;7.30;99.90;;;;;;5071914;28;20451;-73
2021/11/17 07:36:10;;;;;;;27.43;25.73;;;7.30;99.90;;;;;;5071442;28;20458;-73
2021/11/17 07:38:38;;;;;;;26.67;24.80;;;7.40;99.90;;;;;;5071820;28;20461;-73
2021/11/17 07:41:06;;;;;;;27.97;26.17;;;7.30;99.90;;;;;;5064897;28;20522;-73
2021/11/17 07:43:33;;;;;;;28.07;26.17;;;7.30;99.90;;;;;;5059452;28;20805;-72
2021/11/17 07:45:59;;;;;;;27.67;25.80;;;7.30;99.90;;;;;;5061441;28;20479;-73
2021/11/17 07:48:28;;;;;;;25.40;23.90;;;7.30;99.90;;;;;;5060143;28;20440;-73
2021/11/17 07:50:56;;;;;;;27.17;25.27;;;7.40;99.90;;;;;;5059409;28;21578;-74
2021/11/17 07:53:24;;;;;;;26.77;24.80;;;7.50;99.90;;;;;;5059595;28;20485;-72
2021/11/17 07:55:54;;;;;;;25.67;24.00;;;7.50;99.90;;;;;;5057476;28;20451;-72
2021/11/17 07:58:23;;;;;;;26.00;24.37;;;7.60;99.90;;;;;;5057666;28;20455;-72
2021/11/17 08:00:52;;;;;;;26.03;24.03;;;7.70;99.90;;;;;;5063966;28;20479;-72
2021/11/17 08:03:21;;;;;;;27.30;25.30;;;7.70;99.90;;;;;;5059323;28;20451;-74
2021/11/17 08:05:50;;;;;;;24.63;23.13;;;7.70;99.90;;;;;;5057881;28;20486;-73
2021/11/17 08:08:18;;;;;;;24.00;22.50;;;7.60;99.90;;;;;;5059259;28;20863;-76
2021/11/17 08:10:45;;;;;;;28.17;26.27;;;7.60;99.90;;;;;;5057374;28;20761;-75
2021/11/17 08:13:14;;;;;;;25.67;23.97;;;7.70;99.90;;;;;;5049500;28;20464;-76
2021/11/17 08:15:41;;;;;;;25.00;23.30;;;7.80;99.90;;;;;;5050911;28;20950;-77
2021/11/17 08:18:08;;;;;;;24.13;22.73;;;7.80;99.90;;;;;;5056050;28;20965;-77
2021/11/17 08:20:36;;;;;;;23.90;22.50;;;7.80;99.90;;;;;;5058373;28;20637;-77
2021/11/17 08:23:03;;;;;;;25.30;23.70;;;7.90;99.90;;;;;;5059471;28;20659;-77
2021/11/17 08:25:32;;;;;;;23.00;21.67;;;7.90;99.90;;;;;;5060501;28;20462;-76
2021/11/17 08:27:59;;;;;;;22.50;21.10;;;8.10;99.90;;;;;;5058774;28;20455;-77
2021/11/17 08:30:31;;;;;;;21.40;20.30;;;8.20;99.90;;;;;;5059958;28;20475;-77
2021/11/17 08:32:59;;;;;;;21.60;20.40;;;8.10;99.90;;;;;;5058625;28;20452;-77
2021/11/17 08:35:27;;;;;;;20.10;19.00;;;8.10;99.90;;;;;;5059312;28;20443;-79
2021/11/17 08:37:56;;;;;;;20.13;19.03;;;8.20;99.90;;;;;;5060839;28;20438;-83
2021/11/17 08:40:25;;;;;;;19.70;18.50;;;8.20;99.90;;;;;;5059317;28;20444;-76
2021/11/17 08:42:52;;;;;;;19.73;18.53;;;8.20;99.90;;;;;;5058163;28;20489;-78
2021/11/17 08:45:19;;;;;;;19.33;17.70;;;8.20;99.90;;;;;;5059838;28;20469;-76
2021/11/17 08:47:47;;;;;;;18.20;17.20;;;8.30;99.90;;;;;;5059154;28;20484;-75
2021/11/17 08:50:16;;;;;;;18.40;17.50;;;8.10;99.90;;;;;;5057969;28;20440;-76
2021/11/17 08:52:45;;;;;;;18.40;17.40;;;8.00;99.90;;;;;;5059036;28;20466;-76
2021/11/17 08:55:12;;;;;;;18.90;17.87;;;8.00;99.90;;;;;;5059908;28;20953;-76
2021/11/17 08:57:40;;;;;;;18.90;17.53;;;7.90;99.90;;;;;;5058427;28;20444;-77
2021/11/17 09:00:09;;;;;;;16.80;15.80;;;7.90;99.90;;;;;;5058758;28;20443;-76
2021/11/17 09:02:40;;;;;;;16.90;15.70;;;7.90;99.90;;;;;;5049073;28;20490;-81
2021/11/17 09:05:11;;;;;;;14.60;13.90;;;7.80;99.90;;;;;;5048571;28;20444;-80
2021/11/17 09:07:39;;;;;;;15.13;14.17;;;7.90;99.90;;;;;;5049017;28;21006;-79
2021/11/17 09:10:07;;;;;;;15.93;15.13;;;7.80;99.90;;;;;;5048914;28;20474;-85
2021/11/17 09:12:34;;;;;;;16.17;15.20;;;7.80;99.90;;;;;;5049110;28;20447;-78
2021/11/17 09:15:01;;;;;;;16.37;15.37;;;7.90;99.90;;;;;;5050685;28;20463;-79
2021/11/17 09:17:27;;;;;;;15.87;15.07;;;8.00;99.90;;;;;;5050273;28;20952;-79
2021/11/17 09:19:54;;;;;;;14.93;14.33;;;8.10;99.90;;;;;;5050863;28;20447;-76
2021/11/17 09:22:23;;;;;;;14.93;14.17;;;8.10;99.90;;;;;;5049927;28;20506;-76
2021/11/17 09:24:49;;;;;;;15.93;14.90;;;8.00;99.90;;;;;;5050283;28;20459;-79
2021/11/17 09:27:18;;;;;;;15.40;14.43;;;8.00;99.90;;;;;;5049921;28;20484;-76
2021/11/17 09:29:44;;;;;;;14.77;14.03;;;7.90;99.90;;;;;;5049934;28;20512;-78
2021/11/17 09:32:12;;;;;;;14.30;13.50;;;8.00;99.90;;;;;;5049282;28;20480;-78
2021/11/17 09:34:39;;;;;;;14.33;13.53;;;7.90;99.90;;;;;;5049720;28;20470;-78
2021/11/17 09:37:07;;;;;;;14.20;13.60;;;7.70;99.90;;;;;;5052953;28;20451;-77
2021/11/17 09:39:36;;;;;;;13.37;12.67;;;7.60;99.90;;;;;;5053083;28;20452;-78
2021/11/17 09:42:05;;;;;;;13.20;12.50;;;7.50;99.90;;;;;;5053262;28;20454;-77
2021/11/17 09:44:43;;;;;;;13.93;13.23;;;7.50;99.90;;;;;;5053134;28;20471;-76
2021/11/17 09:47:13;;;;;;;13.87;13.20;;;7.40;99.90;;;;;;5053097;28;20479;-78
2021/11/17 09:49:45;;;;;;;15.10;14.20;;;7.50;99.90;;;;;;5052933;28;20815;-77
2021/11/17 09:52:14;;;;;;;13.47;12.77;;;7.70;99.90;;;;;;5052871;28;20483;-77
2021/11/17 09:54:59;;;;;;;13.40;12.70;;;7.80;99.90;;;;;;5053039;28;20455;-77
2021/11/17 09:57:29;;;;;;;14.13;13.43;;;7.80;99.90;;;;;;5052936;28;20450;-76
2021/11/17 10:00:01;;;;;;;14.00;13.20;;;7.90;99.90;;;;;;5053082;28;20787;-75
2021/11/17 10:02:37;;;;;;;13.33;12.77;;;8.00;99.90;;;;;;5052677;28;20452;-76
2021/11/17 10:05:08;;;;;;;13.73;12.80;;;8.10;99.90;;;;;;5052565;28;20447;-76
2021/11/17 10:13:19;;;;;;;13.20;12.63;;;8.30;99.90;;;;;;5031317;28;20950;-76
2021/11/17 10:15:50;;;;;;;14.13;13.43;;;8.30;99.90;;;;;;5052484;28;20456;-76
2021/11/17 10:18:38;;;;;;;13.90;13.10;;;8.50;99.90;;;;;;5052227;28;20444;-77
2021/11/17 10:21:09;;;;;;;12.90;12.30;;;8.60;99.90;;;;;;5052427;28;20982;-77
2021/11/17 10:23:52;;;;;;;12.57;11.97;;;8.60;99.90;;;;;;5052300;28;20455;-77
2021/11/17 10:26:20;;;;;;;13.17;12.10;;;8.60;99.90;;;;;;5052381;28;20468;-77
2021/11/17 10:28:52;;;;;;;13.40;12.70;;;8.80;99.90;;;;;;5052311;28;20479;-77
2021/11/17 10:31:23;;;;;;;12.03;11.53;;;9.00;99.90;;;;;;5052228;28;20923;-77
2021/11/17 10:34:05;;;;;;;13.07;12.53;;;9.00;99.90;;;;;;5052544;28;20826;-75
2021/11/17 10:36:35;;;;;;;12.50;12.00;;;9.10;99.90;;;;;;5052001;28;20451;-77
2021/11/17 10:39:13;;;;;;;12.77;12.27;;;9.00;99.90;;;;;;5052037;28;20829;-76
2021/11/17 10:41:52;;;;;;;12.23;11.73;;;8.90;99.90;;;;;;5052052;28;20460;-75
2021/11/17 10:44:32;;;;;;;12.70;12.20;;;8.90;99.90;;;;;;5052011;28;20483;-77
2021/11/17 10:47:00;;;;;;;12.20;11.70;;;8.80;99.90;;;;;;5051674;28;20986;-76
2021/11/17 10:49:29;;;;;;;11.63;11.13;;;8.80;99.90;;;;;;5052037;28;20448;-76
2021/11/17 10:51:58;;;;;;;11.30;10.80;;;8.90;99.90;;;;;;5051435;28;20488;-76
2021/11/17 10:54:28;;;;;;;10.80;10.33;;;9.00;99.90;;;;;;5052010;28;20494;-76
2021/11/17 10:57:04;;;;;;;11.20;10.70;;;9.10;99.90;;;;;;5051665;28;20875;-76
2021/11/17 10:59:32;;;;;;;11.37;10.97;;;9.10;99.90;;;;;;5051714;28;20459;-76
2021/11/17 11:02:00;;;;;;;11.50;10.90;;;9.30;99.90;;;;;;5051646;28;20428;-77
2021/11/17 11:04:30;;;;;;;11.60;11.10;;;9.40;99.90;;;;;;5051468;28;20977;-78
2021/11/17 11:07:10;;;;;;;12.03;11.43;;;9.20;99.90;;;;;;5051323;28;20838;-76
2021/11/17 11:09:43;;;;;;;11.20;10.80;;;9.10;99.90;;;;;;5051246;28;20459;-77
2021/11/17 11:12:14;;;;;;;11.77;11.17;;;9.40;99.90;;;;;;5051706;28;20455;-77
2021/11/17 11:14:46;;;;;;;10.63;10.23;;;9.40;99.90;;;;;;5051564;28;20448;-77
2021/11/17 11:17:34;;;;;;;11.60;11.20;;;9.30;99.90;;;;;;5051419;28;20441;-77
2021/11/17 11:20:30;;;;;;;11.43;10.93;;;9.20;99.90;;;;;;5051348;28;20459;-78
2021/11/17 11:23:16;;;;;;;11.50;10.93;;;9.10;99.90;;;;;;5051273;28;20448;-78
2021/11/17 11:25:51;;;;;;;11.27;10.70;;;9.20;99.90;;;;;;5051148;28;20497;-78
2021/11/17 11:28:29;;;;;;;11.03;10.53;;;9.30;99.90;;;;;;5051126;28;20562;-77
2021/11/17 11:31:18;;;;;;;11.50;10.90;;;9.60;99.90;;;;;;5051250;28;20585;-78
2021/11/17 11:33:49;;;;;;;10.37;9.87;;;9.70;99.90;;;;;;5050992;28;20463;-77
2021/11/17 11:36:44;;;;;;;11.33;10.93;;;9.70;99.90;;;;;;5050836;28;20570;-78
2021/11/17 11:39:45;;;;;;;11.10;10.60;;;9.80;99.90;;;;;;5051107;28;20447;-77
2021/11/17 11:42:39;;;;;;;10.60;10.20;;;9.60;99.90;;;;;;4989219;28;20450;-78
2021/11/17 11:45:39;;;;;;;12.37;11.50;;;9.50;99.90;;;;;;5049618;28;20522;-78
2021/11/17 11:48:08;;;;;;;10.53;10.07;;;9.40;99.90;;;;;;5050768;28;20484;-80
2021/11/17 11:51:02;;;;;;;11.17;10.67;;;9.30;99.90;;;;;;5050530;28;20448;-77
2021/11/17 11:54:05;;;;;;;10.23;9.73;;;9.20;99.90;;;;;;5050355;28;20720;-78
2021/11/17 11:56:47;;;;;;;10.50;10.10;;;9.00;99.90;;;;;;5048219;28;20499;-81
2021/11/17 11:59:18;;;;;;;12.50;11.40;;;8.90;99.90;;;;;;5050037;28;20826;-80
2021/11/17 12:01:46;;;;;;;11.60;10.83;;;9.00;99.90;;;;;;5050545;28;20907;-80
2021/11/17 12:04:17;;;;;;;11.53;11.00;;;9.00;99.90;;;;;;5050352;28;20448;-80
2021/11/17 12:07:03;;;;;;;11.50;10.90;;;9.10;99.90;;;;;;5050262;28;20473;-81
2021/11/17 12:09:34;;;;;;;11.90;11.23;;;9.30;99.90;;;;;;5050355;28;20460;-80
2021/11/17 12:12:07;;;;;;;11.47;10.83;;;9.30;99.90;;;;;;5050276;28;20463;-79
2021/11/17 12:14:45;;;;;;;11.57;11.07;;;9.30;99.90;;;;;;5049985;28;20492;-80
2021/11/17 12:17:19;;;;;;;10.13;9.80;;;9.20;99.90;;;;;;5050520;28;20452;-81
2021/11/17 12:19:50;;;;;;;11.03;10.63;;;9.00;99.90;;;;;;5050808;28;20448;-80
2021/11/17 12:22:21;;;;;;;11.80;10.80;;;9.00;99.90;;;;;;5050395;28;20459;-80
2021/11/17 12:24:51;;;;;;;10.77;10.37;;;9.00;99.90;;;;;;5050370;28;20455;-80
2021/11/17 12:27:21;;;;;;;11.03;10.53;;;9.10;99.90;;;;;;5049953;28;20497;-80
2021/11/17 12:29:54;;;;;;;12.30;11.60;;;9.10;99.90;;;;;;5049834;28;20458;-79
2021/11/17 12:32:29;;;;;;;13.07;12.03;;;9.00;99.90;;;;;;5049925;28;20448;-80
2021/11/17 12:35:22;;;;;;;10.27;9.67;;;8.90;99.90;;;;;;5050094;28;20942;-80
2021/11/17 12:37:51;;;;;;;9.20;8.90;;;8.70;99.90;;;;;;5050716;28;20804;-79
2021/11/17 12:40:31;;;;;;;9.73;9.33;;;8.60;99.90;;;;;;5049852;28;20452;-79
2021/11/17 12:43:00;;;;;;;11.10;10.60;;;8.50;99.90;;;;;;5050010;28;20460;-79
2021/11/17 12:45:36;;;;;;;10.80;10.40;;;8.50;99.90;;;;;;5049702;28;20452;-79
2021/11/17 12:48:10;;;;;;;10.10;9.80;;;8.50;99.90;;;;;;5049747;28;20898;-79
2021/11/17 12:50:43;;;;;;;10.83;10.30;;;8.60;99.90;;;;;;5049823;28;20455;-79
2021/11/17 12:53:14;;;;;;;10.40;10.00;;;8.50;99.90;;;;;;5049637;28;20476;-80
2021/11/17 12:55:46;;;;;;;10.17;9.77;;;8.70;99.90;;;;;;5049951;28;20571;-80
2021/11/17 12:58:17;;;;;;;11.07;10.47;;;8.80;99.90;;;;;;5049792;28;20455;-80
2021/11/17 13:00:55;;;;;;;12.00;11.40;;;8.80;99.90;;;;;;5049697;28;20451;-78
2021/11/17 13:03:40;;;;;;;12.87;12.17;;;8.90;99.90;;;;;;5049758;28;20455;-80
2021/11/17 13:06:20;;;;;;;10.87;10.37;;;8.70;99.90;;;;;;5049873;28;20981;-78
2021/11/17 13:09:04;;;;;;;10.70;10.20;;;8.60;99.90;;;;;;5050466;28;20479;-79
2021/11/17 13:11:31;;;;;;;11.43;10.90;;;8.60;99.90;;;;;;5053838;28;20447;-79
2021/11/17 13:13:59;;;;;;;11.00;10.60;;;8.50;99.90;;;;;;5053749;28;20451;-80
2021/11/17 13:16:33;;;;;;;10.73;10.33;;;8.40;99.90;;;;;;5053706;28;20448;-80
2021/11/17 13:19:03;;;;;;;11.20;10.80;;;8.40;99.90;;;;;;5053739;28;20565;-80
2021/11/17 13:21:34;;;;;;;11.03;10.63;;;8.40;99.90;;;;;;5053678;28;20460;-80
2021/11/17 13:24:22;;;;;;;11.10;10.67;;;8.30;99.90;;;;;;5053549;28;20459;-79
2021/11/17 13:26:52;;;;;;;10.83;10.43;;;8.40;99.90;;;;;;5043253;28;20466;-79
2021/11/17 13:29:28;;;;;;;10.83;10.43;;;8.40;99.90;;;;;;5053356;28;20499;-78
2021/11/17 13:32:11;;;;;;;10.37;9.97;;;8.40;99.90;;;;;;5053575;28;20506;-79
2021/11/17 13:34:41;;;;;;;10.73;10.33;;;8.30;99.90;;;;;;5053127;28;20447;-79
2021/11/17 13:37:24;;;;;;;10.60;10.30;;;8.40;99.90;;;;;;5053228;28;20463;-80
2021/11/17 13:39:56;;;;;;;10.07;9.67;;;8.50;99.90;;;;;;5053552;28;20455;-79
2021/11/17 13:42:26;;;;;;;10.70;10.30;;;8.50;99.90;;;;;;5053374;28;20452;-79
2021/11/17 13:44:53;;;;;;;10.90;10.50;;;8.50;99.90;;;;;;5053256;28;20455;-79
2021/11/17 13:47:21;;;;;;;11.10;10.40;;;8.50;99.90;;;;;;5053071;28;20796;-79
2021/11/17 13:49:52;;;;;;;11.17;10.57;;;8.60;99.90;;;;;;5053179;28;20483;-80
2021/11/17 13:52:22;;;;;;;10.20;9.80;;;8.50;99.90;;;;;;5052771;28;20480;-80
2021/11/17 13:54:50;;;;;;;10.50;10.00;;;8.60;99.90;;;;;;5053380;28;20452;-80
2021/11/17 13:57:18;;;;;;;11.10;10.60;;;8.60;99.90;;;;;;5052751;28;20460;-80
2021/11/17 13:59:46;;;;;;;10.00;9.60;;;8.60;99.90;;;;;;5052924;28;20448;-79
2021/11/17 14:02:14;;;;;;;10.10;9.60;;;8.60;99.90;;;;;;5052805;28;20443;-79
2021/11/17 14:04:41;;;;;;;10.97;10.37;;;8.60;99.90;;;;;;5052571;28;20461;-80
2021/11/17 14:07:12;;;;;;;11.77;10.97;;;8.60;99.90;;;;;;5052752;28;20651;-79
2021/11/17 14:09:39;;;;;;;11.97;11.37;;;8.70;99.90;;;;;;5052653;28;20447;-79
2021/11/17 14:12:07;;;;;;;12.20;11.50;;;8.70;99.90;;;;;;5052509;28;20456;-78
2021/11/17 14:14:34;;;;;;;11.00;10.60;;;8.60;99.90;;;;;;5052532;28;21031;-78
2021/11/17 14:17:01;;;;;;;11.50;11.00;;;8.50;99.90;;;;;;5052601;28;20872;-78
2021/11/17 14:19:28;;;;;;;12.07;11.37;;;8.60;99.90;;;;;;5052740;28;20456;-81
2021/11/17 14:21:54;;;;;;;12.70;11.90;;;8.60;99.90;;;;;;5052129;28;20452;-79
2021/11/17 14:24:22;;;;;;;10.83;10.30;;;8.70;99.90;;;;;;5052312;28;20459;-78
2021/11/17 14:26:51;;;;;;;11.50;11.00;;;8.80;99.90;;;;;;5052434;28;20448;-78
2021/11/17 14:29:22;;;;;;;11.00;10.60;;;8.90;99.90;;;;;;5052326;28;20850;-79
2021/11/17 14:31:53;;;;;;;12.90;12.30;;;8.90;99.90;;;;;;5052287;28;20472;-79
2021/11/17 14:34:20;;;;;;;11.30;10.80;;;8.90;99.90;;;;;;5052238;28;20869;-81
2021/11/17 14:36:50;;;;;;;11.90;11.30;;;8.90;99.90;;;;;;5052230;28;20454;-80
2021/11/17 14:39:18;;;;;;;10.73;10.23;;;8.90;99.90;;;;;;5052095;28;20471;-81
2021/11/17 14:41:46;;;;;;;9.90;9.50;;;8.90;99.90;;;;;;5052071;28;20868;-80
2021/11/17 14:44:13;;;;;;;10.07;9.77;;;8.90;99.90;;;;;;5052031;28;20463;-80
2021/11/17 14:46:42;;;;;;;11.07;10.57;;;8.90;99.90;;;;;;5052120;28;20456;-79
2021/11/17 14:49:10;;;;;;;11.30;10.83;;;8.90;99.90;;;;;;5051929;28;20521;-80
2021/11/17 14:51:37;;;;;;;11.97;11.27;;;9.00;99.90;;;;;;5051985;28;20452;-82
2021/11/17 14:54:03;;;;;;;11.30;10.80;;;8.90;99.90;;;;;;5052316;28;20456;-81
2021/11/17 14:56:30;;;;;;;10.40;10.00;;;8.80;99.90;;;;;;5052286;28;20448;-80
2021/11/17 14:58:58;;;;;;;11.47;10.97;;;8.70;99.90;;;;;;5051910;28;20448;-80
2021/11/17 15:01:29;;;;;;;11.30;10.70;;;8.70;99.90;;;;;;5051691;28;20452;-79
2021/11/17 15:03:56;;;;;;;11.53;10.93;;;8.50;99.90;;;;;;5051682;28;20456;-80
2021/11/17 15:06:25;;;;;;;12.13;11.53;;;8.50;99.90;;;;;;5051959;28;20455;-79
2021/11/17 15:08:52;;;;;;;12.07;11.47;;;8.50;99.90;;;;;;5051856;28;20484;-78
2021/11/17 15:11:21;;;;;;;10.93;10.43;;;8.50;99.90;;;;;;5051455;28;20460;-78
2021/11/17 15:13:48;;;;;;;11.20;10.53;;;8.20;99.90;;;;;;5051501;28;20455;-78
2021/11/17 15:16:16;;;;;;;11.23;10.77;;;8.20;99.90;;;;;;5051622;28;20444;-79
2021/11/17 15:18:44;;;;;;;11.57;10.97;;;8.30;99.90;;;;;;5051499;28;20452;-79
2021/11/17 15:21:14;;;;;;;11.70;11.10;;;8.30;99.90;;;;;;5051424;28;20460;-80
2021/11/17 15:23:41;;;;;;;10.83;10.43;;;8.50;99.90;;;;;;5051388;28;20448;-79
2021/11/17 15:26:08;;;;;;;11.80;11.30;;;8.60;99.90;;;;;;5051215;28;20455;-80
2021/11/17 15:28:37;;;;;;;13.13;12.43;;;8.50;99.90;;;;;;5051297;28;20500;-79
2021/11/17 15:31:07;;;;;;;12.13;11.33;;;8.50;99.90;;;;;;5051216;28;20464;-81
2021/11/17 15:33:37;;;;;;;12.00;11.50;;;8.40;99.90;;;;;;5050117;28;20456;-80
2021/11/17 15:36:06;;;;;;;12.67;12.07;;;8.30;99.90;;;;;;5051244;28;20835;-80
2021/11/17 15:38:33;;;;;;;13.90;13.30;;;8.40;99.90;;;;;;5051155;28;20871;-81
2021/11/17 15:41:02;;;;;;;11.93;11.33;;;8.50;99.90;;;;;;5051115;28;20452;-80
2021/11/17 15:43:29;;;;;;;11.67;11.17;;;8.50;99.90;;;;;;5050916;28;20452;-79
2021/11/17 15:45:57;;;;;;;12.80;12.13;;;8.40;99.90;;;;;;5051159;28;20455;-80
2021/11/17 15:48:25;;;;;;;12.47;11.73;;;8.50;99.90;;;;;;5050683;28;20490;-79